sensor_id;sensor_type;location;lat;lon;timestamp;P1;durP1;ratioP1;P2;durP2;ratioP2
28028;SDS011;15345;59.364;18.016;2022-12-10T00:01:14;15.75;;;9.27;;
28028;SDS011;15345;59.364;18.016;2022-12-10T00:02:34;16.65;;;9.57;;
28028;SDS011;15345;59.364;18.016;2022-12-10T00:03:53;15.80;;;10.02;;
28028;SDS011;15345;59.364;18.016;2022-12-10T00:05:12;15.27;;;9.68;;
28028;SDS011;15345;59.364;18.016;2022-12-10T00:06:31;16.80;;;10.10;;
28028;SDS011;15345;59.364;18.016;2022-12-10T00:07:51;14.48;;;9.50;;
28028;SDS011;15345;59.364;18.016;2022-12-10T00:09:11;12.77;;;9.10;;
28028;SDS011;15345;59.364;18.016;2022-12-10T00:10:31;13.55;;;9.20;;
28028;SDS011;15345;59.364;18.016;2022-12-10T00:11:50;13.07;;;8.82;;
28028;SDS011;15345;59.364;18.016;2022-12-10T00:13:08;14.90;;;8.73;;
28028;SDS011;15345;59.364;18.016;2022-12-10T00:14:27;11.77;;;8.40;;
28028;SDS011;15345;59.364;18.016;2022-12-10T00:15:46;14.75;;;9.55;;
28028;SDS011;15345;59.364;18.016;2022-12-10T00:17:05;14.75;;;9.73;;
28028;SDS011;15345;59.364;18.016;2022-12-10T00:18:25;13.40;;;8.30;;
28028;SDS011;15345;59.364;18.016;2022-12-10T00:19:44;12.07;;;8.32;;
28028;SDS011;15345;59.364;18.016;2022-12-10T00:21:07;14.02;;;9.18;;
28028;SDS011;15345;59.364;18.016;2022-12-10T00:23:45;18.77;;;9.75;;
28028;SDS011;15345;59.364;18.016;2022-12-10T00:25:04;13.23;;;9.88;;
28028;SDS011;15345;59.364;18.016;2022-12-10T00:26:25;16.25;;;9.68;;
28028;SDS011;15345;59.364;18.016;2022-12-10T00:27:44;15.75;;;10.02;;
28028;SDS011;15345;59.364;18.016;2022-12-10T00:29:03;15.00;;;9.07;;
28028;SDS011;15345;59.364;18.016;2022-12-10T00:30:22;14.00;;;8.75;;
28028;SDS011;15345;59.364;18.016;2022-12-10T00:31:41;16.10;;;9.52;;
28028;SDS011;15345;59.364;18.016;2022-12-10T00:33:00;14.07;;;8.88;;
28028;SDS011;15345;59.364;18.016;2022-12-10T00:34:19;13.70;;;8.60;;
28028;SDS011;15345;59.364;18.016;2022-12-10T00:35:38;15.50;;;9.13;;
28028;SDS011;15345;59.364;18.016;2022-12-10T00:36:57;12.70;;;8.23;;
28028;SDS011;15345;59.364;18.016;2022-12-10T00:38:15;12.30;;;8.20;;
28028;SDS011;15345;59.364;18.016;2022-12-10T00:39:34;13.65;;;8.82;;
28028;SDS011;15345;59.364;18.016;2022-12-10T00:40:53;11.95;;;8.20;;
28028;SDS011;15345;59.364;18.016;2022-12-10T00:42:12;14.27;;;9.05;;
28028;SDS011;15345;59.364;18.016;2022-12-10T00:43:31;14.30;;;9.10;;
28028;SDS011;15345;59.364;18.016;2022-12-10T00:44:50;16.88;;;9.25;;
28028;SDS011;15345;59.364;18.016;2022-12-10T00:46:10;17.15;;;9.35;;
28028;SDS011;15345;59.364;18.016;2022-12-10T00:47:29;14.75;;;9.77;;
28028;SDS011;15345;59.364;18.016;2022-12-10T00:48:48;12.40;;;8.32;;
28028;SDS011;15345;59.364;18.016;2022-12-10T00:50:07;12.65;;;8.32;;
28028;SDS011;15345;59.364;18.016;2022-12-10T00:51:27;13.35;;;9.05;;
28028;SDS011;15345;59.364;18.016;2022-12-10T00:52:46;16.45;;;8.45;;
28028;SDS011;15345;59.364;18.016;2022-12-10T00:54:05;14.35;;;8.27;;
28028;SDS011;15345;59.364;18.016;2022-12-10T00:55:24;10.68;;;7.05;;
28028;SDS011;15345;59.364;18.016;2022-12-10T00:56:43;12.70;;;7.20;;
28028;SDS011;15345;59.364;18.016;2022-12-10T00:58:01;11.90;;;8.68;;
28028;SDS011;15345;59.364;18.016;2022-12-10T00:59:20;11.55;;;8.00;;
28028;SDS011;15345;59.364;18.016;2022-12-10T01:00:39;12.65;;;8.43;;
28028;SDS011;15345;59.364;18.016;2022-12-10T01:01:58;11.60;;;8.35;;
28028;SDS011;15345;59.364;18.016;2022-12-10T01:03:17;12.93;;;8.77;;
28028;SDS011;15345;59.364;18.016;2022-12-10T01:04:35;11.07;;;7.68;;
28028;SDS011;15345;59.364;18.016;2022-12-10T01:05:54;10.60;;;8.05;;
28028;SDS011;15345;59.364;18.016;2022-12-10T01:07:13;10.80;;;7.88;;
28028;SDS011;15345;59.364;18.016;2022-12-10T01:08:32;11.95;;;8.25;;
28028;SDS011;15345;59.364;18.016;2022-12-10T01:09:51;13.18;;;8.25;;
28028;SDS011;15345;59.364;18.016;2022-12-10T01:11:11;11.50;;;8.13;;
28028;SDS011;15345;59.364;18.016;2022-12-10T01:12:30;13.85;;;8.00;;
28028;SDS011;15345;59.364;18.016;2022-12-10T01:13:49;13.82;;;8.57;;
28028;SDS011;15345;59.364;18.016;2022-12-10T01:15:09;14.30;;;8.90;;
28028;SDS011;15345;59.364;18.016;2022-12-10T01:16:28;12.05;;;8.20;;
28028;SDS011;15345;59.364;18.016;2022-12-10T01:17:47;13.45;;;9.02;;
28028;SDS011;15345;59.364;18.016;2022-12-10T01:19:06;12.27;;;8.63;;
28028;SDS011;15345;59.364;18.016;2022-12-10T01:20:25;11.35;;;8.18;;
28028;SDS011;15345;59.364;18.016;2022-12-10T01:21:44;10.57;;;8.07;;
28028;SDS011;15345;59.364;18.016;2022-12-10T01:23:03;12.75;;;7.20;;
28028;SDS011;15345;59.364;18.016;2022-12-10T01:24:23;12.20;;;8.15;;
28028;SDS011;15345;59.364;18.016;2022-12-10T01:25:42;11.95;;;7.60;;
28028;SDS011;15345;59.364;18.016;2022-12-10T01:27:01;11.18;;;7.80;;
28028;SDS011;15345;59.364;18.016;2022-12-10T01:28:20;11.52;;;7.40;;
28028;SDS011;15345;59.364;18.016;2022-12-10T01:29:39;13.50;;;8.70;;
28028;SDS011;15345;59.364;18.016;2022-12-10T01:31:02;10.52;;;7.15;;
28028;SDS011;15345;59.364;18.016;2022-12-10T01:32:21;10.65;;;7.57;;
28028;SDS011;15345;59.364;18.016;2022-12-10T01:33:40;14.10;;;7.60;;
28028;SDS011;15345;59.364;18.016;2022-12-10T01:34:59;11.00;;;7.57;;
28028;SDS011;15345;59.364;18.016;2022-12-10T01:36:25;14.43;;;7.68;;
28028;SDS011;15345;59.364;18.016;2022-12-10T01:37:44;11.98;;;8.30;;
28028;SDS011;15345;59.364;18.016;2022-12-10T01:39:03;10.65;;;8.10;;
28028;SDS011;15345;59.364;18.016;2022-12-10T01:40:23;13.07;;;8.20;;
28028;SDS011;15345;59.364;18.016;2022-12-10T01:41:43;11.93;;;8.00;;
28028;SDS011;15345;59.364;18.016;2022-12-10T01:43:02;10.57;;;6.90;;
28028;SDS011;15345;59.364;18.016;2022-12-10T01:45:40;14.50;;;8.07;;
28028;SDS011;15345;59.364;18.016;2022-12-10T01:46:59;9.82;;;7.40;;
28028;SDS011;15345;59.364;18.016;2022-12-10T01:48:19;10.98;;;7.32;;
28028;SDS011;15345;59.364;18.016;2022-12-10T01:49:39;12.25;;;7.18;;
28028;SDS011;15345;59.364;18.016;2022-12-10T01:50:59;8.15;;;7.13;;
28028;SDS011;15345;59.364;18.016;2022-12-10T01:52:18;10.57;;;6.93;;
28028;SDS011;15345;59.364;18.016;2022-12-10T01:53:38;11.98;;;6.78;;
28028;SDS011;15345;59.364;18.016;2022-12-10T01:54:57;7.22;;;6.45;;
28028;SDS011;15345;59.364;18.016;2022-12-10T01:56:17;8.35;;;6.00;;
28028;SDS011;15345;59.364;18.016;2022-12-10T01:57:36;10.82;;;7.63;;
28028;SDS011;15345;59.364;18.016;2022-12-10T01:58:55;8.32;;;6.70;;
28028;SDS011;15345;59.364;18.016;2022-12-10T02:00:14;9.38;;;6.47;;
28028;SDS011;15345;59.364;18.016;2022-12-10T02:01:39;10.20;;;6.50;;
28028;SDS011;15345;59.364;18.016;2022-12-10T02:03:05;8.15;;;6.82;;
28028;SDS011;15345;59.364;18.016;2022-12-10T02:06:32;10.13;;;7.60;;
28028;SDS011;15345;59.364;18.016;2022-12-10T02:09:09;10.02;;;7.38;;
28028;SDS011;15345;59.364;18.016;2022-12-10T02:11:56;7.18;;;6.47;;
28028;SDS011;15345;59.364;18.016;2022-12-10T02:13:22;9.30;;;6.45;;
28028;SDS011;15345;59.364;18.016;2022-12-10T02:14:56;7.78;;;6.40;;
28028;SDS011;15345;59.364;18.016;2022-12-10T02:17:55;9.10;;;6.53;;
28028;SDS011;15345;59.364;18.016;2022-12-10T02:20:55;7.32;;;5.78;;
28028;SDS011;15345;59.364;18.016;2022-12-10T02:22:15;10.65;;;6.75;;
28028;SDS011;15345;59.364;18.016;2022-12-10T02:23:39;7.68;;;6.55;;
28028;SDS011;15345;59.364;18.016;2022-12-10T02:25:00;7.65;;;5.57;;
28028;SDS011;15345;59.364;18.016;2022-12-10T02:26:23;7.88;;;6.22;;
28028;SDS011;15345;59.364;18.016;2022-12-10T02:29:32;6.80;;;5.85;;
28028;SDS011;15345;59.364;18.016;2022-12-10T02:30:51;7.65;;;6.80;;
28028;SDS011;15345;59.364;18.016;2022-12-10T02:32:15;7.15;;;6.35;;
28028;SDS011;15345;59.364;18.016;2022-12-10T02:33:35;7.55;;;6.80;;
28028;SDS011;15345;59.364;18.016;2022-12-10T02:34:57;7.47;;;6.75;;
28028;SDS011;15345;59.364;18.016;2022-12-10T02:36:16;11.60;;;7.28;;
28028;SDS011;15345;59.364;18.016;2022-12-10T02:37:38;10.80;;;7.60;;
28028;SDS011;15345;59.364;18.016;2022-12-10T02:38:59;8.88;;;7.07;;
28028;SDS011;15345;59.364;18.016;2022-12-10T02:40:22;10.05;;;7.32;;
28028;SDS011;15345;59.364;18.016;2022-12-10T02:41:43;6.22;;;5.20;;
28028;SDS011;15345;59.364;18.016;2022-12-10T02:43:04;9.77;;;6.35;;
28028;SDS011;15345;59.364;18.016;2022-12-10T02:44:23;10.90;;;7.93;;
28028;SDS011;15345;59.364;18.016;2022-12-10T02:45:43;9.88;;;7.07;;
28028;SDS011;15345;59.364;18.016;2022-12-10T02:47:03;10.02;;;7.80;;
28028;SDS011;15345;59.364;18.016;2022-12-10T02:48:22;10.50;;;7.60;;
28028;SDS011;15345;59.364;18.016;2022-12-10T02:49:42;12.25;;;7.65;;
28028;SDS011;15345;59.364;18.016;2022-12-10T02:51:02;8.13;;;7.20;;
28028;SDS011;15345;59.364;18.016;2022-12-10T02:52:22;11.43;;;7.65;;
28028;SDS011;15345;59.364;18.016;2022-12-10T02:53:42;10.70;;;8.02;;
28028;SDS011;15345;59.364;18.016;2022-12-10T02:55:01;11.13;;;7.90;;
28028;SDS011;15345;59.364;18.016;2022-12-10T02:56:24;11.75;;;7.78;;
28028;SDS011;15345;59.364;18.016;2022-12-10T02:59:31;10.10;;;7.63;;
28028;SDS011;15345;59.364;18.016;2022-12-10T03:01:35;10.55;;;8.20;;
28028;SDS011;15345;59.364;18.016;2022-12-10T03:04:00;12.63;;;8.35;;
28028;SDS011;15345;59.364;18.016;2022-12-10T03:05:22;10.05;;;7.75;;
28028;SDS011;15345;59.364;18.016;2022-12-10T03:06:50;11.50;;;8.32;;
28028;SDS011;15345;59.364;18.016;2022-12-10T03:08:18;12.40;;;8.65;;
28028;SDS011;15345;59.364;18.016;2022-12-10T03:09:40;9.45;;;7.53;;
28028;SDS011;15345;59.364;18.016;2022-12-10T03:12:33;8.75;;;7.72;;
28028;SDS011;15345;59.364;18.016;2022-12-10T03:13:59;11.75;;;8.13;;
28028;SDS011;15345;59.364;18.016;2022-12-10T03:15:18;10.35;;;7.80;;
28028;SDS011;15345;59.364;18.016;2022-12-10T03:16:39;12.82;;;8.25;;
28028;SDS011;15345;59.364;18.016;2022-12-10T03:18:00;11.02;;;7.95;;
28028;SDS011;15345;59.364;18.016;2022-12-10T03:19:21;9.73;;;7.55;;
28028;SDS011;15345;59.364;18.016;2022-12-10T03:20:42;11.65;;;7.93;;
28028;SDS011;15345;59.364;18.016;2022-12-10T03:22:03;9.30;;;7.85;;
28028;SDS011;15345;59.364;18.016;2022-12-10T03:23:22;9.40;;;7.88;;
28028;SDS011;15345;59.364;18.016;2022-12-10T03:24:41;10.27;;;7.53;;
28028;SDS011;15345;59.364;18.016;2022-12-10T03:26:01;8.73;;;7.18;;
28028;SDS011;15345;59.364;18.016;2022-12-10T03:27:21;9.55;;;7.78;;
28028;SDS011;15345;59.364;18.016;2022-12-10T03:28:44;12.02;;;7.40;;
28028;SDS011;15345;59.364;18.016;2022-12-10T03:30:04;9.90;;;7.75;;
28028;SDS011;15345;59.364;18.016;2022-12-10T03:31:23;7.63;;;5.13;;
28028;SDS011;15345;59.364;18.016;2022-12-10T03:32:42;6.75;;;6.05;;
28028;SDS011;15345;59.364;18.016;2022-12-10T03:34:02;7.30;;;6.30;;
28028;SDS011;15345;59.364;18.016;2022-12-10T03:35:22;7.38;;;6.68;;
28028;SDS011;15345;59.364;18.016;2022-12-10T03:36:42;6.60;;;5.93;;
28028;SDS011;15345;59.364;18.016;2022-12-10T03:38:02;6.43;;;5.65;;
28028;SDS011;15345;59.364;18.016;2022-12-10T03:39:22;7.40;;;5.35;;
28028;SDS011;15345;59.364;18.016;2022-12-10T03:40:41;5.93;;;5.32;;
28028;SDS011;15345;59.364;18.016;2022-12-10T03:42:00;6.35;;;5.75;;
28028;SDS011;15345;59.364;18.016;2022-12-10T03:43:20;6.63;;;6.03;;
28028;SDS011;15345;59.364;18.016;2022-12-10T03:44:40;6.72;;;6.10;;
28028;SDS011;15345;59.364;18.016;2022-12-10T03:45:59;6.53;;;5.93;;
28028;SDS011;15345;59.364;18.016;2022-12-10T03:47:18;8.55;;;5.90;;
28028;SDS011;15345;59.364;18.016;2022-12-10T03:48:38;7.45;;;6.50;;
28028;SDS011;15345;59.364;18.016;2022-12-10T03:49:57;6.47;;;5.88;;
28028;SDS011;15345;59.364;18.016;2022-12-10T03:51:15;5.72;;;5.22;;
28028;SDS011;15345;59.364;18.016;2022-12-10T03:52:35;5.97;;;5.38;;
28028;SDS011;15345;59.364;18.016;2022-12-10T03:53:54;5.82;;;5.22;;
28028;SDS011;15345;59.364;18.016;2022-12-10T03:55:13;5.63;;;5.13;;
28028;SDS011;15345;59.364;18.016;2022-12-10T03:56:32;5.72;;;5.22;;
28028;SDS011;15345;59.364;18.016;2022-12-10T03:57:51;6.25;;;5.60;;
28028;SDS011;15345;59.364;18.016;2022-12-10T03:59:10;5.03;;;4.60;;
28028;SDS011;15345;59.364;18.016;2022-12-10T04:00:29;5.10;;;4.65;;
28028;SDS011;15345;59.364;18.016;2022-12-10T04:01:47;5.47;;;4.97;;
28028;SDS011;15345;59.364;18.016;2022-12-10T04:03:06;5.57;;;5.10;;
28028;SDS011;15345;59.364;18.016;2022-12-10T04:04:25;5.78;;;5.00;;
28028;SDS011;15345;59.364;18.016;2022-12-10T04:05:44;5.90;;;5.32;;
28028;SDS011;15345;59.364;18.016;2022-12-10T04:07:03;6.18;;;5.57;;
28028;SDS011;15345;59.364;18.016;2022-12-10T04:08:21;5.60;;;4.80;;
28028;SDS011;15345;59.364;18.016;2022-12-10T04:09:41;6.03;;;5.35;;
28028;SDS011;15345;59.364;18.016;2022-12-10T04:11:03;5.93;;;5.32;;
28028;SDS011;15345;59.364;18.016;2022-12-10T04:12:23;5.43;;;5.03;;
28028;SDS011;15345;59.364;18.016;2022-12-10T04:13:42;5.25;;;4.85;;
28028;SDS011;15345;59.364;18.016;2022-12-10T04:15:20;5.45;;;4.95;;
28028;SDS011;15345;59.364;18.016;2022-12-10T04:16:57;5.38;;;4.88;;
28028;SDS011;15345;59.364;18.016;2022-12-10T04:18:16;5.47;;;4.97;;
28028;SDS011;15345;59.364;18.016;2022-12-10T04:19:35;5.30;;;4.80;;
28028;SDS011;15345;59.364;18.016;2022-12-10T04:20:54;6.32;;;5.13;;
28028;SDS011;15345;59.364;18.016;2022-12-10T04:22:32;5.57;;;4.97;;
28028;SDS011;15345;59.364;18.016;2022-12-10T04:24:10;4.97;;;4.53;;
28028;SDS011;15345;59.364;18.016;2022-12-10T04:25:48;6.20;;;5.30;;
28028;SDS011;15345;59.364;18.016;2022-12-10T04:28:48;5.10;;;4.70;;
28028;SDS011;15345;59.364;18.016;2022-12-10T04:30:08;6.00;;;5.50;;
28028;SDS011;15345;59.364;18.016;2022-12-10T04:31:28;5.20;;;4.75;;
28028;SDS011;15345;59.364;18.016;2022-12-10T04:32:47;5.10;;;4.63;;
28028;SDS011;15345;59.364;18.016;2022-12-10T04:34:06;4.90;;;4.50;;
28028;SDS011;15345;59.364;18.016;2022-12-10T04:35:25;5.10;;;4.70;;
28028;SDS011;15345;59.364;18.016;2022-12-10T04:36:43;4.30;;;3.90;;
28028;SDS011;15345;59.364;18.016;2022-12-10T04:38:03;4.05;;;3.75;;
28028;SDS011;15345;59.364;18.016;2022-12-10T04:39:22;4.03;;;3.72;;
28028;SDS011;15345;59.364;18.016;2022-12-10T04:40:40;4.95;;;4.40;;
28028;SDS011;15345;59.364;18.016;2022-12-10T04:41:59;4.72;;;4.32;;
28028;SDS011;15345;59.364;18.016;2022-12-10T04:43:19;4.55;;;4.18;;
28028;SDS011;15345;59.364;18.016;2022-12-10T04:44:38;4.60;;;4.25;;
28028;SDS011;15345;59.364;18.016;2022-12-10T04:45:57;4.75;;;4.32;;
28028;SDS011;15345;59.364;18.016;2022-12-10T04:47:16;5.03;;;4.63;;
28028;SDS011;15345;59.364;18.016;2022-12-10T04:48:35;5.45;;;4.93;;
28028;SDS011;15345;59.364;18.016;2022-12-10T04:49:54;4.88;;;4.47;;
28028;SDS011;15345;59.364;18.016;2022-12-10T04:51:13;4.72;;;4.20;;
28028;SDS011;15345;59.364;18.016;2022-12-10T04:52:32;4.85;;;4.38;;
28028;SDS011;15345;59.364;18.016;2022-12-10T04:53:51;4.70;;;4.30;;
28028;SDS011;15345;59.364;18.016;2022-12-10T04:55:10;4.68;;;4.28;;
28028;SDS011;15345;59.364;18.016;2022-12-10T04:56:29;5.18;;;4.78;;
28028;SDS011;15345;59.364;18.016;2022-12-10T04:57:48;5.88;;;4.18;;
28028;SDS011;15345;59.364;18.016;2022-12-10T04:59:07;6.13;;;5.10;;
28028;SDS011;15345;59.364;18.016;2022-12-10T05:00:27;5.55;;;4.90;;
28028;SDS011;15345;59.364;18.016;2022-12-10T05:01:46;4.90;;;4.60;;
28028;SDS011;15345;59.364;18.016;2022-12-10T05:03:04;4.78;;;4.38;;
28028;SDS011;15345;59.364;18.016;2022-12-10T05:04:23;6.45;;;4.95;;
28028;SDS011;15345;59.364;18.016;2022-12-10T05:05:42;4.80;;;4.35;;
28028;SDS011;15345;59.364;18.016;2022-12-10T05:07:01;5.22;;;4.82;;
28028;SDS011;15345;59.364;18.016;2022-12-10T05:08:20;5.05;;;4.30;;
28028;SDS011;15345;59.364;18.016;2022-12-10T05:09:39;5.30;;;4.82;;
28028;SDS011;15345;59.364;18.016;2022-12-10T05:11:02;4.90;;;4.45;;
28028;SDS011;15345;59.364;18.016;2022-12-10T05:12:21;5.75;;;4.97;;
28028;SDS011;15345;59.364;18.016;2022-12-10T05:13:40;4.80;;;4.38;;
28028;SDS011;15345;59.364;18.016;2022-12-10T05:14:59;4.28;;;3.92;;
28028;SDS011;15345;59.364;18.016;2022-12-10T05:16:19;4.80;;;4.28;;
28028;SDS011;15345;59.364;18.016;2022-12-10T05:17:38;5.68;;;5.05;;
28028;SDS011;15345;59.364;18.016;2022-12-10T05:18:56;5.57;;;5.07;;
28028;SDS011;15345;59.364;18.016;2022-12-10T05:20:15;4.82;;;4.40;;
28028;SDS011;15345;59.364;18.016;2022-12-10T05:21:34;4.82;;;4.43;;
28028;SDS011;15345;59.364;18.016;2022-12-10T05:23:11;5.35;;;4.85;;
28028;SDS011;15345;59.364;18.016;2022-12-10T05:24:49;5.22;;;4.82;;
28028;SDS011;15345;59.364;18.016;2022-12-10T05:26:08;5.15;;;4.70;;
28028;SDS011;15345;59.364;18.016;2022-12-10T05:27:32;5.88;;;5.32;;
28028;SDS011;15345;59.364;18.016;2022-12-10T05:30:10;5.30;;;4.80;;
28028;SDS011;15345;59.364;18.016;2022-12-10T05:31:29;4.80;;;4.40;;
28028;SDS011;15345;59.364;18.016;2022-12-10T05:32:48;4.97;;;4.47;;
28028;SDS011;15345;59.364;18.016;2022-12-10T05:34:09;2.88;;;2.67;;
28028;SDS011;15345;59.364;18.016;2022-12-10T05:35:28;4.72;;;4.32;;
28028;SDS011;15345;59.364;18.016;2022-12-10T05:36:47;5.32;;;4.82;;
28028;SDS011;15345;59.364;18.016;2022-12-10T05:38:06;5.60;;;5.00;;
28028;SDS011;15345;59.364;18.016;2022-12-10T05:39:25;7.65;;;3.75;;
28028;SDS011;15345;59.364;18.016;2022-12-10T05:40:44;4.47;;;4.07;;
28028;SDS011;15345;59.364;18.016;2022-12-10T05:42:03;4.55;;;4.05;;
28028;SDS011;15345;59.364;18.016;2022-12-10T05:43:21;4.55;;;3.83;;
28028;SDS011;15345;59.364;18.016;2022-12-10T05:44:41;3.22;;;2.92;;
28028;SDS011;15345;59.364;18.016;2022-12-10T05:46:09;4.72;;;4.32;;
28028;SDS011;15345;59.364;18.016;2022-12-10T05:47:29;3.53;;;3.22;;
28028;SDS011;15345;59.364;18.016;2022-12-10T05:48:48;3.60;;;3.30;;
28028;SDS011;15345;59.364;18.016;2022-12-10T05:50:08;5.55;;;3.40;;
28028;SDS011;15345;59.364;18.016;2022-12-10T05:51:28;3.88;;;3.58;;
28028;SDS011;15345;59.364;18.016;2022-12-10T05:52:47;4.15;;;3.80;;
28028;SDS011;15345;59.364;18.016;2022-12-10T05:54:08;4.80;;;4.40;;
28028;SDS011;15345;59.364;18.016;2022-12-10T05:55:28;4.25;;;3.85;;
28028;SDS011;15345;59.364;18.016;2022-12-10T05:56:47;4.55;;;4.25;;
28028;SDS011;15345;59.364;18.016;2022-12-10T05:58:06;4.40;;;4.00;;
28028;SDS011;15345;59.364;18.016;2022-12-10T05:59:25;3.92;;;3.63;;
28028;SDS011;15345;59.364;18.016;2022-12-10T06:00:44;3.88;;;3.58;;
28028;SDS011;15345;59.364;18.016;2022-12-10T06:02:03;4.68;;;3.63;;
28028;SDS011;15345;59.364;18.016;2022-12-10T06:03:22;3.60;;;3.30;;
28028;SDS011;15345;59.364;18.016;2022-12-10T06:04:41;3.80;;;3.60;;
28028;SDS011;15345;59.364;18.016;2022-12-10T06:06:00;4.22;;;3.90;;
28028;SDS011;15345;59.364;18.016;2022-12-10T06:07:19;4.20;;;3.80;;
28028;SDS011;15345;59.364;18.016;2022-12-10T06:08:38;6.38;;;4.50;;
28028;SDS011;15345;59.364;18.016;2022-12-10T06:09:57;3.80;;;3.50;;
28028;SDS011;15345;59.364;18.016;2022-12-10T06:11:16;4.32;;;3.90;;
28028;SDS011;15345;59.364;18.016;2022-12-10T06:12:36;4.50;;;3.53;;
28028;SDS011;15345;59.364;18.016;2022-12-10T06:13:58;5.13;;;4.65;;
28028;SDS011;15345;59.364;18.016;2022-12-10T06:15:17;5.63;;;3.78;;
28028;SDS011;15345;59.364;18.016;2022-12-10T06:16:36;4.10;;;3.80;;
28028;SDS011;15345;59.364;18.016;2022-12-10T06:17:55;3.95;;;3.33;;
28028;SDS011;15345;59.364;18.016;2022-12-10T06:19:14;4.05;;;3.75;;
28028;SDS011;15345;59.364;18.016;2022-12-10T06:20:33;5.35;;;4.07;;
28028;SDS011;15345;59.364;18.016;2022-12-10T06:21:52;4.68;;;4.22;;
28028;SDS011;15345;59.364;18.016;2022-12-10T06:23:11;4.57;;;4.20;;
28028;SDS011;15345;59.364;18.016;2022-12-10T06:24:29;4.57;;;4.28;;
28028;SDS011;15345;59.364;18.016;2022-12-10T06:25:48;4.63;;;4.20;;
28028;SDS011;15345;59.364;18.016;2022-12-10T06:27:07;3.92;;;3.53;;
28028;SDS011;15345;59.364;18.016;2022-12-10T06:28:26;4.97;;;4.10;;
28028;SDS011;15345;59.364;18.016;2022-12-10T06:29:44;4.63;;;4.22;;
28028;SDS011;15345;59.364;18.016;2022-12-10T06:31:03;4.20;;;3.80;;
28028;SDS011;15345;59.364;18.016;2022-12-10T06:32:22;3.90;;;3.60;;
28028;SDS011;15345;59.364;18.016;2022-12-10T06:33:41;4.22;;;3.83;;
28028;SDS011;15345;59.364;18.016;2022-12-10T06:35:00;4.32;;;4.03;;
28028;SDS011;15345;59.364;18.016;2022-12-10T06:36:19;4.32;;;3.92;;
28028;SDS011;15345;59.364;18.016;2022-12-10T06:37:38;4.65;;;4.13;;
28028;SDS011;15345;59.364;18.016;2022-12-10T06:38:57;3.65;;;3.35;;
28028;SDS011;15345;59.364;18.016;2022-12-10T06:40:18;3.67;;;3.40;;
28028;SDS011;15345;59.364;18.016;2022-12-10T06:41:37;5.65;;;4.07;;
28028;SDS011;15345;59.364;18.016;2022-12-10T06:42:56;4.20;;;3.90;;
28028;SDS011;15345;59.364;18.016;2022-12-10T06:44:15;4.35;;;3.92;;
28028;SDS011;15345;59.364;18.016;2022-12-10T06:45:37;4.40;;;4.00;;
28028;SDS011;15345;59.364;18.016;2022-12-10T06:46:57;4.15;;;3.83;;
28028;SDS011;15345;59.364;18.016;2022-12-10T06:48:16;4.70;;;4.30;;
28028;SDS011;15345;59.364;18.016;2022-12-10T06:49:35;4.88;;;4.47;;
28028;SDS011;15345;59.364;18.016;2022-12-10T06:50:54;7.85;;;5.28;;
28028;SDS011;15345;59.364;18.016;2022-12-10T06:52:14;6.13;;;4.18;;
28028;SDS011;15345;59.364;18.016;2022-12-10T06:53:33;4.75;;;4.32;;
28028;SDS011;15345;59.364;18.016;2022-12-10T06:54:53;4.75;;;4.35;;
28028;SDS011;15345;59.364;18.016;2022-12-10T06:56:14;4.95;;;4.55;;
28028;SDS011;15345;59.364;18.016;2022-12-10T06:57:34;5.13;;;4.25;;
28028;SDS011;15345;59.364;18.016;2022-12-10T06:58:53;5.88;;;4.68;;
28028;SDS011;15345;59.364;18.016;2022-12-10T07:00:12;5.28;;;4.40;;
28028;SDS011;15345;59.364;18.016;2022-12-10T07:01:31;5.38;;;4.47;;
28028;SDS011;15345;59.364;18.016;2022-12-10T07:02:50;4.40;;;4.00;;
28028;SDS011;15345;59.364;18.016;2022-12-10T07:04:09;5.57;;;5.07;;
28028;SDS011;15345;59.364;18.016;2022-12-10T07:05:28;5.88;;;4.70;;
28028;SDS011;15345;59.364;18.016;2022-12-10T07:06:47;6.10;;;4.63;;
28028;SDS011;15345;59.364;18.016;2022-12-10T07:08:05;5.13;;;4.72;;
28028;SDS011;15345;59.364;18.016;2022-12-10T07:09:24;4.85;;;4.40;;
28028;SDS011;15345;59.364;18.016;2022-12-10T07:10:43;5.70;;;4.53;;
28028;SDS011;15345;59.364;18.016;2022-12-10T07:12:02;5.78;;;4.25;;
28028;SDS011;15345;59.364;18.016;2022-12-10T07:13:21;5.60;;;3.97;;
28028;SDS011;15345;59.364;18.016;2022-12-10T07:14:40;4.82;;;4.40;;
28028;SDS011;15345;59.364;18.016;2022-12-10T07:16:10;5.38;;;4.88;;
28028;SDS011;15345;59.364;18.016;2022-12-10T07:17:29;5.00;;;4.50;;
28028;SDS011;15345;59.364;18.016;2022-12-10T07:18:49;4.50;;;3.70;;
28028;SDS011;15345;59.364;18.016;2022-12-10T07:20:09;4.22;;;3.83;;
28028;SDS011;15345;59.364;18.016;2022-12-10T07:21:32;4.70;;;4.30;;
28028;SDS011;15345;59.364;18.016;2022-12-10T07:22:51;5.00;;;4.50;;
28028;SDS011;15345;59.364;18.016;2022-12-10T07:24:12;4.60;;;4.28;;
28028;SDS011;15345;59.364;18.016;2022-12-10T07:25:31;4.50;;;4.10;;
28028;SDS011;15345;59.364;18.016;2022-12-10T07:26:50;4.25;;;3.95;;
28028;SDS011;15345;59.364;18.016;2022-12-10T07:28:10;3.85;;;3.65;;
28028;SDS011;15345;59.364;18.016;2022-12-10T07:29:29;5.68;;;4.40;;
28028;SDS011;15345;59.364;18.016;2022-12-10T07:30:49;5.53;;;5.00;;
28028;SDS011;15345;59.364;18.016;2022-12-10T07:32:09;3.63;;;3.33;;
28028;SDS011;15345;59.364;18.016;2022-12-10T07:33:28;3.17;;;2.92;;
28028;SDS011;15345;59.364;18.016;2022-12-10T07:34:47;4.10;;;3.70;;
28028;SDS011;15345;59.364;18.016;2022-12-10T07:36:07;4.25;;;3.95;;
28028;SDS011;15345;59.364;18.016;2022-12-10T07:37:26;4.55;;;4.15;;
28028;SDS011;15345;59.364;18.016;2022-12-10T07:38:44;4.90;;;4.50;;
28028;SDS011;15345;59.364;18.016;2022-12-10T07:40:04;7.63;;;4.38;;
28028;SDS011;15345;59.364;18.016;2022-12-10T07:41:23;4.53;;;4.22;;
28028;SDS011;15345;59.364;18.016;2022-12-10T07:42:42;4.90;;;4.43;;
28028;SDS011;15345;59.364;18.016;2022-12-10T07:44:01;4.55;;;4.15;;
28028;SDS011;15345;59.364;18.016;2022-12-10T07:45:21;5.50;;;5.00;;
28028;SDS011;15345;59.364;18.016;2022-12-10T07:46:40;5.18;;;4.05;;
28028;SDS011;15345;59.364;18.016;2022-12-10T07:47:59;4.70;;;4.20;;
28028;SDS011;15345;59.364;18.016;2022-12-10T07:49:18;5.20;;;4.70;;
28028;SDS011;15345;59.364;18.016;2022-12-10T07:50:37;4.47;;;4.00;;
28028;SDS011;15345;59.364;18.016;2022-12-10T07:51:56;4.25;;;3.80;;
28028;SDS011;15345;59.364;18.016;2022-12-10T07:53:15;5.43;;;4.60;;
28028;SDS011;15345;59.364;18.016;2022-12-10T07:54:35;4.50;;;4.05;;
28028;SDS011;15345;59.364;18.016;2022-12-10T07:55:54;4.82;;;4.32;;
28028;SDS011;15345;59.364;18.016;2022-12-10T07:57:14;4.72;;;4.32;;
28028;SDS011;15345;59.364;18.016;2022-12-10T07:58:35;6.22;;;4.57;;
28028;SDS011;15345;59.364;18.016;2022-12-10T07:59:54;4.38;;;4.07;;
28028;SDS011;15345;59.364;18.016;2022-12-10T08:01:14;4.10;;;3.80;;
28028;SDS011;15345;59.364;18.016;2022-12-10T08:02:34;5.43;;;4.90;;
28028;SDS011;15345;59.364;18.016;2022-12-10T08:03:54;6.10;;;4.40;;
28028;SDS011;15345;59.364;18.016;2022-12-10T08:05:15;5.35;;;4.18;;
28028;SDS011;15345;59.364;18.016;2022-12-10T08:06:34;5.15;;;4.65;;
28028;SDS011;15345;59.364;18.016;2022-12-10T08:07:53;4.57;;;4.15;;
28028;SDS011;15345;59.364;18.016;2022-12-10T08:09:15;8.27;;;4.78;;
28028;SDS011;15345;59.364;18.016;2022-12-10T08:10:34;4.90;;;4.50;;
28028;SDS011;15345;59.364;18.016;2022-12-10T08:11:53;5.57;;;5.07;;
28028;SDS011;15345;59.364;18.016;2022-12-10T08:13:15;4.60;;;4.20;;
28028;SDS011;15345;59.364;18.016;2022-12-10T08:14:34;5.68;;;5.15;;